sensor_id;sensor_type;location;lat;lon;timestamp;pressure;altitude;pressure_sealevel;temperature;humidity
20710;BME280;10516;51.518;9.864;2023-07-28T00:00:06;97743.47;;;16.73;91.51
20710;BME280;10516;51.518;9.864;2023-07-28T00:02:33;97749.50;;;16.87;89.48
20710;BME280;10516;51.518;9.864;2023-07-28T00:04:58;97752.84;;;16.92;89.36
20710;BME280;10516;51.518;9.864;2023-07-28T00:07:24;97743.63;;;16.76;90.68
20710;BME280;10516;51.518;9.864;2023-07-28T00:09:49;97757.09;;;16.85;90.20
20710;BME280;10516;51.518;9.864;2023-07-28T00:12:15;97749.63;;;16.73;90.83
20710;BME280;10516;51.518;9.864;2023-07-28T00:14:40;97746.16;;;16.73;92.13
20710;BME280;10516;51.518;9.864;2023-07-28T00:17:05;97761.38;;;16.77;90.61
20710;BME280;10516;51.518;9.864;2023-07-28T00:19:31;97747.88;;;16.69;91.11
20710;BME280;10516;51.518;9.864;2023-07-28T00:21:56;97738.38;;;16.80;89.97
20710;BME280;10516;51.518;9.864;2023-07-28T00:24:22;97733.31;;;16.78;90.47
20710;BME280;10516;51.518;9.864;2023-07-28T00:26:47;97724.44;;;16.78;90.15
20710;BME280;10516;51.518;9.864;2023-07-28T00:29:12;97721.72;;;16.86;89.75
20710;BME280;10516;51.518;9.864;2023-07-28T00:31:38;97728.56;;;16.84;89.64
20710;BME280;10516;51.518;9.864;2023-07-28T00:34:03;97726.19;;;16.82;90.42
20710;BME280;10516;51.518;9.864;2023-07-28T00:36:30;97718.88;;;16.74;90.75
20710;BME280;10516;51.518;9.864;2023-07-28T00:38:56;97729.50;;;16.71;90.69
20710;BME280;10516;51.518;9.864;2023-07-28T00:41:21;97730.28;;;16.71;90.48
20710;BME280;10516;51.518;9.864;2023-07-28T00:43:46;97723.78;;;16.72;90.62
20710;BME280;10516;51.518;9.864;2023-07-28T00:46:12;97725.38;;;16.73;90.33
20710;BME280;10516;51.518;9.864;2023-07-28T00:48:39;97719.34;;;16.68;90.38
20710;BME280;10516;51.518;9.864;2023-07-28T00:51:06;97735.06;;;16.74;90.56
20710;BME280;10516;51.518;9.864;2023-07-28T00:53:32;97730.47;;;16.75;90.67
20710;BME280;10516;51.518;9.864;2023-07-28T00:55:57;97714.91;;;16.63;90.59
20710;BME280;10516;51.518;9.864;2023-07-28T00:58:23;97721.38;;;16.62;90.68
20710;BME280;10516;51.518;9.864;2023-07-28T01:00:49;97722.84;;;16.60;90.87
20710;BME280;10516;51.518;9.864;2023-07-28T01:03:17;97728.56;;;16.75;90.43
20710;BME280;10516;51.518;9.864;2023-07-28T01:06:02;97729.19;;;16.64;90.35
20710;BME280;10516;51.518;9.864;2023-07-28T01:11:03;97716.19;;;16.74;90.40
20710;BME280;10516;51.518;9.864;2023-07-28T01:13:28;97719.69;;;16.75;89.62
20710;BME280;10516;51.518;9.864;2023-07-28T01:15:54;97730.13;;;16.68;91.29
20710;BME280;10516;51.518;9.864;2023-07-28T01:18:19;97724.41;;;16.69;90.37
20710;BME280;10516;51.518;9.864;2023-07-28T01:20:46;97727.91;;;16.70;90.58
20710;BME280;10516;51.518;9.864;2023-07-28T01:23:19;97729.66;;;16.74;90.63
20710;BME280;10516;51.518;9.864;2023-07-28T01:26:05;97729.34;;;16.76;90.31
20710;BME280;10516;51.518;9.864;2023-07-28T01:28:34;97723.66;;;16.77;90.74
20710;BME280;10516;51.518;9.864;2023-07-28T01:31:02;97714.44;;;16.70;90.95
20710;BME280;10516;51.518;9.864;2023-07-28T01:33:28;97732.34;;;16.74;90.31
20710;BME280;10516;51.518;9.864;2023-07-28T01:35:53;97723.81;;;16.81;90.32
20710;BME280;10516;51.518;9.864;2023-07-28T01:38:19;97699.84;;;16.62;90.47
20710;BME280;10516;51.518;9.864;2023-07-28T01:40:44;97728.06;;;16.73;91.03
20710;BME280;10516;51.518;9.864;2023-07-28T01:43:10;97724.13;;;16.71;90.73
20710;BME280;10516;51.518;9.864;2023-07-28T01:45:35;97732.84;;;16.76;90.88
20710;BME280;10516;51.518;9.864;2023-07-28T01:48:00;97716.50;;;16.73;90.14
20710;BME280;10516;51.518;9.864;2023-07-28T01:50:26;97716.66;;;16.68;90.21
20710;BME280;10516;51.518;9.864;2023-07-28T01:52:51;97726.81;;;16.79;90.17
20710;BME280;10516;51.518;9.864;2023-07-28T01:55:17;97718.22;;;16.60;91.02
20710;BME280;10516;51.518;9.864;2023-07-28T01:57:53;97703.63;;;16.53;90.93
20710;BME280;10516;51.518;9.864;2023-07-28T02:00:19;97709.84;;;16.62;90.45
20710;BME280;10516;51.518;9.864;2023-07-28T02:02:44;97723.00;;;16.72;90.86
20710;BME280;10516;51.518;9.864;2023-07-28T02:05:10;97731.09;;;16.72;90.39
20710;BME280;10516;51.518;9.864;2023-07-28T02:07:35;97731.88;;;16.72;90.48
20710;BME280;10516;51.518;9.864;2023-07-28T02:10:00;97731.22;;;16.67;90.17
20710;BME280;10516;51.518;9.864;2023-07-28T02:12:26;97725.84;;;16.67;90.23
20710;BME280;10516;51.518;9.864;2023-07-28T02:14:51;97732.81;;;16.68;90.58
20710;BME280;10516;51.518;9.864;2023-07-28T02:17:16;97731.22;;;16.58;90.96
20710;BME280;10516;51.518;9.864;2023-07-28T02:19:42;97730.69;;;16.47;90.87
20710;BME280;10516;51.518;9.864;2023-07-28T02:22:07;97740.22;;;16.54;91.56
20710;BME280;10516;51.518;9.864;2023-07-28T02:24:32;97729.31;;;16.59;91.52
20710;BME280;10516;51.518;9.864;2023-07-28T02:26:58;97735.84;;;16.66;90.37
20710;BME280;10516;51.518;9.864;2023-07-28T02:29:23;97732.03;;;16.76;89.90
20710;BME280;10516;51.518;9.864;2023-07-28T02:31:48;97716.78;;;16.54;90.36
20710;BME280;10516;51.518;9.864;2023-07-28T02:34:14;97729.31;;;16.67;90.07
20710;BME280;10516;51.518;9.864;2023-07-28T02:36:39;97745.47;;;16.59;90.89
20710;BME280;10516;51.518;9.864;2023-07-28T02:39:04;97746.09;;;16.56;90.64
20710;BME280;10516;51.518;9.864;2023-07-28T02:41:30;97733.06;;;16.49;90.89
20710;BME280;10516;51.518;9.864;2023-07-28T02:43:55;97742.66;;;16.64;90.35
20710;BME280;10516;51.518;9.864;2023-07-28T02:46:20;97740.09;;;16.67;90.17
20710;BME280;10516;51.518;9.864;2023-07-28T02:48:46;97738.34;;;16.63;89.85
20710;BME280;10516;51.518;9.864;2023-07-28T02:51:11;97745.84;;;16.74;89.45
20710;BME280;10516;51.518;9.864;2023-07-28T02:53:36;97736.66;;;16.75;89.62
20710;BME280;10516;51.518;9.864;2023-07-28T02:56:02;97722.38;;;16.66;89.46
20710;BME280;10516;51.518;9.864;2023-07-28T02:58:27;97741.03;;;16.63;90.43
20710;BME280;10516;51.518;9.864;2023-07-28T03:00:53;97725.19;;;16.53;90.18
20710;BME280;10516;51.518;9.864;2023-07-28T03:03:18;97721.50;;;16.48;90.32
20710;BME280;10516;51.518;9.864;2023-07-28T03:05:44;97729.63;;;16.57;90.58
20710;BME280;10516;51.518;9.864;2023-07-28T03:08:09;97746.28;;;16.68;90.17
20710;BME280;10516;51.518;9.864;2023-07-28T03:10:34;97755.19;;;16.68;90.03
20710;BME280;10516;51.518;9.864;2023-07-28T03:13:00;97748.31;;;16.62;90.13
20710;BME280;10516;51.518;9.864;2023-07-28T03:15:25;97757.41;;;16.66;90.02
20710;BME280;10516;51.518;9.864;2023-07-28T03:17:50;97766.13;;;16.72;89.98
20710;BME280;10516;51.518;9.864;2023-07-28T03:20:16;97743.41;;;16.56;90.19
20710;BME280;10516;51.518;9.864;2023-07-28T03:22:42;97760.56;;;16.60;90.84
20710;BME280;10516;51.518;9.864;2023-07-28T03:25:08;97766.91;;;16.64;90.52
20710;BME280;10516;51.518;9.864;2023-07-28T03:27:33;97756.72;;;16.52;90.28
20710;BME280;10516;51.518;9.864;2023-07-28T03:29:59;97768.78;;;16.55;90.90
20710;BME280;10516;51.518;9.864;2023-07-28T03:32:25;97781.44;;;16.54;91.45
20710;BME280;10516;51.518;9.864;2023-07-28T03:34:50;97785.41;;;16.57;90.47
20710;BME280;10516;51.518;9.864;2023-07-28T03:37:16;97765.84;;;16.42;90.78
20710;BME280;10516;51.518;9.864;2023-07-28T03:39:41;97787.16;;;16.53;91.31
20710;BME280;10516;51.518;9.864;2023-07-28T03:42:07;97783.19;;;16.59;89.64
20710;BME280;10516;51.518;9.864;2023-07-28T03:44:32;97784.97;;;16.63;89.82
20710;BME280;10516;51.518;9.864;2023-07-28T03:46:59;97779.09;;;16.70;90.11
20710;BME280;10516;51.518;9.864;2023-07-28T03:49:24;97785.28;;;16.62;90.05
20710;BME280;10516;51.518;9.864;2023-07-28T03:51:49;97783.53;;;16.57;90.50
20710;BME280;10516;51.518;9.864;2023-07-28T03:54:15;97790.34;;;16.63;90.44
20710;BME280;10516;51.518;9.864;2023-07-28T03:56:40;97786.41;;;16.78;89.57
20710;BME280;10516;51.518;9.864;2023-07-28T03:59:06;97791.97;;;16.73;89.42
20710;BME280;10516;51.518;9.864;2023-07-28T04:01:31;97780.63;;;16.54;90.31
20710;BME280;10516;51.518;9.864;2023-07-28T04:03:57;97788.91;;;16.57;90.40
20710;BME280;10516;51.518;9.864;2023-07-28T04:06:43;97780.28;;;16.46;90.35
20710;BME280;10516;51.518;9.864;2023-07-28T04:09:08;97791.28;;;16.59;90.14
20710;BME280;10516;51.518;9.864;2023-07-28T04:11:35;97763.72;;;16.53;89.92
20710;BME280;10516;51.518;9.864;2023-07-28T04:14:00;97790.16;;;16.51;90.58
20710;BME280;10516;51.518;9.864;2023-07-28T04:16:26;97769.53;;;16.46;90.31
20710;BME280;10516;51.518;9.864;2023-07-28T04:18:51;97789.06;;;16.61;89.87
20710;BME280;10516;51.518;9.864;2023-07-28T04:21:16;97769.03;;;16.44;90.34
20710;BME280;10516;51.518;9.864;2023-07-28T04:23:42;97780.91;;;16.43;90.38
20710;BME280;10516;51.518;9.864;2023-07-28T04:26:08;97774.16;;;16.55;90.21
20710;BME280;10516;51.518;9.864;2023-07-28T04:28:34;97776.41;;;16.61;90.25
20710;BME280;10516;51.518;9.864;2023-07-28T04:30:59;97781.94;;;16.65;89.83
20710;BME280;10516;51.518;9.864;2023-07-28T04:33:24;97773.22;;;16.59;90.07
20710;BME280;10516;51.518;9.864;2023-07-28T04:35:50;97772.06;;;16.52;90.06
20710;BME280;10516;51.518;9.864;2023-07-28T04:38:15;97788.44;;;16.64;90.06
20710;BME280;10516;51.518;9.864;2023-07-28T04:40:42;97782.09;;;16.60;90.00
20710;BME280;10516;51.518;9.864;2023-07-28T04:43:07;97785.53;;;16.52;90.01
20710;BME280;10516;51.518;9.864;2023-07-28T04:45:33;97803.34;;;16.70;90.22
20710;BME280;10516;51.518;9.864;2023-07-28T04:47:58;97795.38;;;16.56;90.44
20710;BME280;10516;51.518;9.864;2023-07-28T04:50:24;97795.78;;;16.41;91.85
20710;BME280;10516;51.518;9.864;2023-07-28T04:52:49;97800.38;;;16.40;92.06
20710;BME280;10516;51.518;9.864;2023-07-28T04:55:14;97792.41;;;16.58;90.66
20710;BME280;10516;51.518;9.864;2023-07-28T04:57:40;97795.94;;;16.75;89.31
20710;BME280;10516;51.518;9.864;2023-07-28T05:00:06;97805.28;;;16.78;89.31
20710;BME280;10516;51.518;9.864;2023-07-28T05:02:31;97807.47;;;16.67;90.44
20710;BME280;10516;51.518;9.864;2023-07-28T05:04:56;97806.88;;;16.79;89.83
20710;BME280;10516;51.518;9.864;2023-07-28T05:07:22;97801.63;;;16.82;89.25
20710;BME280;10516;51.518;9.864;2023-07-28T05:09:47;97809.72;;;16.82;89.82
20710;BME280;10516;51.518;9.864;2023-07-28T05:12:12;97810.19;;;16.76;89.80
20710;BME280;10516;51.518;9.864;2023-07-28T05:14:38;97790.81;;;16.65;89.96
20710;BME280;10516;51.518;9.864;2023-07-28T05:17:04;97795.13;;;16.75;89.74
20710;BME280;10516;51.518;9.864;2023-07-28T05:19:29;97804.03;;;16.84;89.05
20710;BME280;10516;51.518;9.864;2023-07-28T05:21:54;97814.38;;;16.90;89.65
20710;BME280;10516;51.518;9.864;2023-07-28T05:24:20;97813.56;;;16.90;89.64
20710;BME280;10516;51.518;9.864;2023-07-28T05:26:45;97783.72;;;16.78;89.47
20710;BME280;10516;51.518;9.864;2023-07-28T05:29:10;97797.03;;;16.74;89.85
20710;BME280;10516;51.518;9.864;2023-07-28T05:31:36;97820.72;;;16.94;89.47
20710;BME280;10516;51.518;9.864;2023-07-28T05:34:01;97808.16;;;16.81;89.61
20710;BME280;10516;51.518;9.864;2023-07-28T05:36:27;97798.47;;;16.89;89.01
20710;BME280;10516;51.518;9.864;2023-07-28T05:38:53;97805.13;;;16.83;89.56
20710;BME280;10516;51.518;9.864;2023-07-28T05:41:21;97815.78;;;16.88;90.21
20710;BME280;10516;51.518;9.864;2023-07-28T05:43:47;97820.22;;;16.84;90.40
20710;BME280;10516;51.518;9.864;2023-07-28T05:46:12;97821.28;;;16.74;90.46
20710;BME280;10516;51.518;9.864;2023-07-28T05:48:37;97825.63;;;16.92;88.56
20710;BME280;10516;51.518;9.864;2023-07-28T05:51:03;97838.63;;;16.99;88.87
20710;BME280;10516;51.518;9.864;2023-07-28T05:53:28;97829.59;;;16.95;89.05
20710;BME280;10516;51.518;9.864;2023-07-28T05:55:53;97844.81;;;16.99;88.92
20710;BME280;10516;51.518;9.864;2023-07-28T05:58:19;97844.66;;;16.96;89.37
20710;BME280;10516;51.518;9.864;2023-07-28T06:00:44;97847.69;;;17.03;89.42
20710;BME280;10516;51.518;9.864;2023-07-28T06:03:10;97841.44;;;16.85;90.72
20710;BME280;10516;51.518;9.864;2023-07-28T06:05:38;97848.16;;;17.05;89.09
20710;BME280;10516;51.518;9.864;2023-07-28T06:08:04;97829.44;;;17.00;88.71
20710;BME280;10516;51.518;9.864;2023-07-28T06:10:29;97849.56;;;17.02;89.14
20710;BME280;10516;51.518;9.864;2023-07-28T06:12:55;97860.69;;;17.01;89.70
20710;BME280;10516;51.518;9.864;2023-07-28T06:15:20;97858.00;;;17.01;90.53
20710;BME280;10516;51.518;9.864;2023-07-28T06:17:45;97852.88;;;16.99;90.11
20710;BME280;10516;51.518;9.864;2023-07-28T06:20:11;97857.97;;;16.92;91.70
20710;BME280;10516;51.518;9.864;2023-07-28T06:22:36;97867.16;;;17.00;90.87
20710;BME280;10516;51.518;9.864;2023-07-28T06:25:02;97867.66;;;17.02;91.08
20710;BME280;10516;51.518;9.864;2023-07-28T06:27:27;97856.25;;;17.05;89.86
20710;BME280;10516;51.518;9.864;2023-07-28T06:29:53;97871.47;;;17.09;89.92
20710;BME280;10516;51.518;9.864;2023-07-28T06:32:18;97860.72;;;17.18;89.84
20710;BME280;10516;51.518;9.864;2023-07-28T06:34:45;97864.97;;;17.19;89.16
20710;BME280;10516;51.518;9.864;2023-07-28T06:37:11;97860.09;;;17.21;89.22
20710;BME280;10516;51.518;9.864;2023-07-28T06:39:36;97862.81;;;17.30;89.53
20710;BME280;10516;51.518;9.864;2023-07-28T06:42:02;97866.44;;;17.34;89.70
20710;BME280;10516;51.518;9.864;2023-07-28T06:44:27;97849.94;;;17.35;89.59
20710;BME280;10516;51.518;9.864;2023-07-28T06:46:52;97848.03;;;17.27;90.09
20710;BME280;10516;51.518;9.864;2023-07-28T06:49:18;97868.81;;;17.44;88.79
20710;BME280;10516;51.518;9.864;2023-07-28T06:51:43;97866.78;;;17.41;89.66
20710;BME280;10516;51.518;9.864;2023-07-28T06:54:08;97879.66;;;17.52;89.67
20710;BME280;10516;51.518;9.864;2023-07-28T06:56:38;97880.78;;;17.51;90.31
20710;BME280;10516;51.518;9.864;2023-07-28T06:59:03;97880.31;;;17.58;90.38
20710;BME280;10516;51.518;9.864;2023-07-28T07:01:29;97881.25;;;17.53;90.50
20710;BME280;10516;51.518;9.864;2023-07-28T07:03:54;97890.44;;;17.61;90.22
20710;BME280;10516;51.518;9.864;2023-07-28T07:06:20;97871.75;;;17.56;90.31
20710;BME280;10516;51.518;9.864;2023-07-28T07:08:46;97877.75;;;17.61;89.41
20710;BME280;10516;51.518;9.864;2023-07-28T07:11:11;97879.66;;;17.69;89.29
20710;BME280;10516;51.518;9.864;2023-07-28T07:13:37;97892.53;;;17.72;90.42
20710;BME280;10516;51.518;9.864;2023-07-28T07:16:02;97881.09;;;17.67;90.34
20710;BME280;10516;51.518;9.864;2023-07-28T07:18:27;97885.84;;;17.87;89.13
20710;BME280;10516;51.518;9.864;2023-07-28T07:20:53;97873.78;;;17.67;90.02
20710;BME280;10516;51.518;9.864;2023-07-28T07:23:18;97898.88;;;17.93;89.19
20710;BME280;10516;51.518;9.864;2023-07-28T07:25:43;97896.97;;;17.94;89.26
20710;BME280;10516;51.518;9.864;2023-07-28T07:28:09;97883.13;;;17.87;88.83
20710;BME280;10516;51.518;9.864;2023-07-28T07:30:34;97884.56;;;17.84;89.55
20710;BME280;10516;51.518;9.864;2023-07-28T07:33:00;97894.59;;;17.92;88.89
20710;BME280;10516;51.518;9.864;2023-07-28T07:35:25;97909.81;;;18.06;88.25
20710;BME280;10516;51.518;9.864;2023-07-28T07:37:50;97892.34;;;18.03;87.90
20710;BME280;10516;51.518;9.864;2023-07-28T07:40:16;97889.81;;;17.98;88.49
20710;BME280;10516;51.518;9.864;2023-07-28T07:42:47;97906.97;;;18.11;88.24
20710;BME280;10516;51.518;9.864;2023-07-28T07:45:14;97909.81;;;18.06;88.03
20710;BME280;10516;51.518;9.864;2023-07-28T07:47:40;97920.63;;;18.06;88.85
20710;BME280;10516;51.518;9.864;2023-07-28T07:50:09;97913.47;;;18.10;87.67
20710;BME280;10516;51.518;9.864;2023-07-28T07:52:36;97914.88;;;18.16;87.97
20710;BME280;10516;51.518;9.864;2023-07-28T07:55:02;97917.44;;;18.12;87.68
20710;BME280;10516;51.518;9.864;2023-07-28T07:57:28;97925.06;;;18.19;87.81
20710;BME280;10516;51.518;9.864;2023-07-28T07:59:53;97907.44;;;18.13;88.22
20710;BME280;10516;51.518;9.864;2023-07-28T08:02:18;97925.03;;;18.27;88.21
20710;BME280;10516;51.518;9.864;2023-07-28T08:04:44;97915.66;;;18.33;87.49
20710;BME280;10516;51.518;9.864;2023-07-28T08:07:15;97922.47;;;18.39;87.81
20710;BME280;10516;51.518;9.864;2023-07-28T08:09:41;97930.91;;;18.46;86.73
20710;BME280;10516;51.518;9.864;2023-07-28T08:12:07;97930.88;;;18.55;87.11
20710;BME280;10516;51.518;9.864;2023-07-28T08:14:33;97933.59;;;18.55;86.72
20710;BME280;10516;51.518;9.864;2023-07-28T08:16:59;97932.50;;;18.56;86.34
20710;BME280;10516;51.518;9.864;2023-07-28T08:19:24;97929.59;;;18.61;87.16
20710;BME280;10516;51.518;9.864;2023-07-28T08:21:57;97931.63;;;18.73;85.39
20710;BME280;10516;51.518;9.864;2023-07-28T08:24:32;97944.19;;;18.77;85.71
20710;BME280;10516;51.518;9.864;2023-07-28T08:27:01;97938.91;;;18.89;85.18
20710;BME280;10516;51.518;9.864;2023-07-28T08:29:26;97943.81;;;18.87;84.91
20710;BME280;10516;51.518;9.864;2023-07-28T08:31:52;97935.50;;;19.01;86.94
20710;BME280;10516;51.518;9.864;2023-07-28T08:34:17;97945.00;;;19.07;85.45
20710;BME280;10516;51.518;9.864;2023-07-28T08:36:43;97942.56;;;19.22;83.97
20710;BME280;10516;51.518;9.864;2023-07-28T08:39:08;97944.44;;;19.30;84.51
20710;BME280;10516;51.518;9.864;2023-07-28T08:41:35;97949.69;;;19.35;84.47
20710;BME280;10516;51.518;9.864;2023-07-28T08:44:00;97951.34;;;19.49;83.39
20710;BME280;10516;51.518;9.864;2023-07-28T08:46:25;97957.03;;;19.56;84.85
20710;BME280;10516;51.518;9.864;2023-07-28T08:48:51;97956.81;;;19.69;82.85
20710;BME280;10516;51.518;9.864;2023-07-28T08:51:17;97959.31;;;19.74;82.88
20710;BME280;10516;51.518;9.864;2023-07-28T08:53:42;97954.63;;;19.83;82.55
20710;BME280;10516;51.518;9.864;2023-07-28T08:56:08;97965.72;;;19.90;83.60
20710;BME280;10516;51.518;9.864;2023-07-28T08:58:34;97971.00;;;20.07;81.94
20710;BME280;10516;51.518;9.864;2023-07-28T09:00:59;97971.94;;;20.11;81.30
20710;BME280;10516;51.518;9.864;2023-07-28T09:03:28;97972.53;;;20.17;80.92
20710;BME280;10516;51.518;9.864;2023-07-28T09:06:01;97978.91;;;20.21;80.89
20710;BME280;10516;51.518;9.864;2023-07-28T09:08:28;97979.69;;;20.22;80.49
20710;BME280;10516;51.518;9.864;2023-07-28T09:10:55;97980.50;;;20.22;81.05
20710;BME280;10516;51.518;9.864;2023-07-28T09:13:20;97983.81;;;20.19;81.19
20710;BME280;10516;51.518;9.864;2023-07-28T09:15:46;97992.91;;;20.23;80.61
20710;BME280;10516;51.518;9.864;2023-07-28T09:18:15;97984.31;;;20.21;80.55
20710;BME280;10516;51.518;9.864;2023-07-28T09:20:41;97978.16;;;20.33;81.01
20710;BME280;10516;51.518;9.864;2023-07-28T09:23:08;97968.69;;;20.39;80.31
20710;BME280;10516;51.518;9.864;2023-07-28T09:25:36;97973.84;;;20.32;80.38
20710;BME280;10516;51.518;9.864;2023-07-28T09:28:01;97987.59;;;20.47;79.87
20710;BME280;10516;51.518;9.864;2023-07-28T09:30:27;97983.97;;;20.43;79.90
20710;BME280;10516;51.518;9.864;2023-07-28T09:33:07;97981.50;;;20.50;79.57
20710;BME280;10516;51.518;9.864;2023-07-28T09:35:33;97984.00;;;20.55;79.97
20710;BME280;10516;51.518;9.864;2023-07-28T09:37:59;97979.91;;;20.49;79.87
20710;BME280;10516;51.518;9.864;2023-07-28T09:40:25;97995.16;;;20.42;80.12
20710;BME280;10516;51.518;9.864;2023-07-28T09:42:52;97991.38;;;20.34;80.62
20710;BME280;10516;51.518;9.864;2023-07-28T09:45:20;97995.00;;;20.17;81.06
20710;BME280;10516;51.518;9.864;2023-07-28T09:47:48;97995.16;;;20.21;81.12
20710;BME280;10516;51.518;9.864;2023-07-28T09:50:18;97994.66;;;20.19;81.29
20710;BME280;10516;51.518;9.864;2023-07-28T09:52:49;97999.25;;;20.27;81.62
20710;BME280;10516;51.518;9.864;2023-07-28T09:55:15;97982.53;;;20.25;81.81
20710;BME280;10516;51.518;9.864;2023-07-28T09:57:46;97980.69;;;20.38;81.94
20710;BME280;10516;51.518;9.864;2023-07-28T10:00:15;97986.25;;;20.53;80.83
20710;BME280;10516;51.518;9.864;2023-07-28T10:02:42;97989.00;;;20.65;79.70
20710;BME280;10516;51.518;9.864;2023-07-28T10:05:08;97983.28;;;20.79;79.54
20710;BME280;10516;51.518;9.864;2023-07-28T10:07:37;97993.88;;;21.05;78.68
20710;BME280;10516;51.518;9.864;2023-07-28T10:10:05;98001.56;;;21.15;78.11
20710;BME280;10516;51.518;9.864;2023-07-28T10:12:40;97989.59;;;21.28;77.49
20710;BME280;10516;51.518;9.864;2023-07-28T10:15:07;97990.28;;;21.25;77.62
20710;BME280;10516;51.518;9.864;2023-07-28T10:17:33;97991.97;;;21.41;77.35
20710;BME280;10516;51.518;9.864;2023-07-28T10:20:05;97994.47;;;21.58;79.90
20710;BME280;10516;51.518;9.864;2023-07-28T10:22:46;97987.44;;;21.82;76.15
20710;BME280;10516;51.518;9.864;2023-07-28T10:25:12;97995.59;;;21.82;76.07
20710;BME280;10516;51.518;9.864;2023-07-28T10:27:38;97988.88;;;22.03;74.86
20710;BME280;10516;51.518;9.864;2023-07-28T10:30:13;97999.06;;;22.06;74.98
20710;BME280;10516;51.518;9.864;2023-07-28T10:32:43;98000.50;;;22.16;74.97
20710;BME280;10516;51.518;9.864;2023-07-28T10:35:23;97997.00;;;22.15;75.57
20710;BME280;10516;51.518;9.864;2023-07-28T10:37:48;98005.56;;;22.29;74.28
20710;BME280;10516;51.518;9.864;2023-07-28T10:40:31;98002.34;;;22.39;74.81
20710;BME280;10516;51.518;9.864;2023-07-28T10:42:57;98003.31;;;22.59;73.53
20710;BME280;10516;51.518;9.864;2023-07-28T10:45:25;98008.53;;;22.64;73.33
20710;BME280;10516;51.518;9.864;2023-07-28T10:47:52;98008.88;;;22.78;72.73
20710;BME280;10516;51.518;9.864;2023-07-28T10:50:18;98002.25;;;23.07;72.62
20710;BME280;10516;51.518;9.864;2023-07-28T10:52:45;97996.75;;;23.19;71.62
20710;BME280;10516;51.518;9.864;2023-07-28T10:55:20;98005.28;;;23.33;72.89
20710;BME280;10516;51.518;9.864;2023-07-28T10:57:47;98006.94;;;23.38;70.64
20710;BME280;10516;51.518;9.864;2023-07-28T11:00:15;98010.53;;;23.42;70.66
20710;BME280;10516;51.518;9.864;2023-07-28T11:02:42;98004.91;;;23.50;70.25
20710;BME280;10516;51.518;9.864;2023-07-28T11:05:12;98002.28;;;23.54;70.35
20710;BME280;10516;51.518;9.864;2023-07-28T11:07:43;97998.69;;;23.50;70.57
20710;BME280;10516;51.518;9.864;2023-07-28T11:10:10;98000.81;;;23.56;69.30
20710;BME280;10516;51.518;9.864;2023-07-28T11:12:39;98004.59;;;23.52;70.05
20710;BME280;10516;51.518;9.864;2023-07-28T11:15:07;97994.47;;;23.52;69.58
20710;BME280;10516;51.518;9.864;2023-07-28T11:17:36;97999.31;;;23.43;70.49
20710;BME280;10516;51.518;9.864;2023-07-28T11:20:02;98006.50;;;23.36;70.53
20710;BME280;10516;51.518;9.864;2023-07-28T11:22:28;98003.09;;;23.54;69.81
20710;BME280;10516;51.518;9.864;2023-07-28T11:24:53;98006.78;;;23.46;69.98
20710;BME280;10516;51.518;9.864;2023-07-28T11:27:19;97995.00;;;23.42;69.91
20710;BME280;10516;51.518;9.864;2023-07-28T11:29:45;97987.69;;;23.46;70.41
20710;BME280;10516;51.518;9.864;2023-07-28T11:32:12;97996.31;;;23.48;70.13
20710;BME280;10516;51.518;9.864;2023-07-28T11:34:40;97995.66;;;23.70;69.19
20710;BME280;10516;51.518;9.864;2023-07-28T11:37:08;97991.25;;;23.81;68.74
20710;BME280;10516;51.518;9.864;2023-07-28T11:39:34;97993.78;;;23.90;68.99
20710;BME280;10516;51.518;9.864;2023-07-28T11:42:01;97993.56;;;23.99;68.46
20710;BME280;10516;51.518;9.864;2023-07-28T11:44:27;97994.41;;;23.83;68.82
20710;BME280;10516;51.518;9.864;2023-07-28T11:46:52;98002.56;;;23.83;69.74
20710;BME280;10516;51.518;9.864;2023-07-28T11:49:21;97996.97;;;23.76;69.12
20710;BME280;10516;51.518;9.864;2023-07-28T11:51:51;97998.50;;;23.58;69.71
20710;BME280;10516;51.518;9.864;2023-07-28T11:54:18;97997.53;;;23.51;69.59
20710;BME280;10516;51.518;9.864;2023-07-28T11:56:48;97989.28;;;23.47;69.89
20710;BME280;10516;51.518;9.864;2023-07-28T11:59:18;97987.34;;;23.32;70.11
20710;BME280;10516;51.518;9.864;2023-07-28T12:01:56;97985.34;;;23.45;69.85
20710;BME280;10516;51.518;9.864;2023-07-28T12:04:27;97996.94;;;23.42;69.59
20710;BME280;10516;51.518;9.864;2023-07-28T12:07:07;98001.59;;;23.41;69.73
20710;BME280;10516;51.518;9.864;2023-07-28T12:12:14;98015.44;;;23.21;70.30
20710;BME280;10516;51.518;9.864;2023-07-28T12:14:40;98007.97;;;23.18;70.27
20710;BME280;10516;51.518;9.864;2023-07-28T12:17:20;98005.44;;;23.25;70.04
20710;BME280;10516;51.518;9.864;2023-07-28T12:22:25;98000.25;;;23.66;69.18
20710;BME280;10516;51.518;9.864;2023-07-28T12:24:50;98002.31;;;23.89;68.60
20710;BME280;10516;51.518;9.864;2023-07-28T12:27:15;98002.16;;;24.16;67.50
20710;BME280;10516;51.518;9.864;2023-07-28T12:29:41;98004.78;;;24.28;67.06
20710;BME280;10516;51.518;9.864;2023-07-28T12:32:07;98007.28;;;24.37;66.47
20710;BME280;10516;51.518;9.864;2023-07-28T12:34:33;98003.38;;;24.38;66.13
20710;BME280;10516;51.518;9.864;2023-07-28T12:36:58;98002.25;;;24.58;66.56
20710;BME280;10516;51.518;9.864;2023-07-28T12:39:24;97999.78;;;24.91;64.91
20710;BME280;10516;51.518;9.864;2023-07-28T12:41:49;97996.03;;;24.99;64.47
20710;BME280;10516;51.518;9.864;2023-07-28T12:44:18;97989.47;;;24.81;64.64
20710;BME280;10516;51.518;9.864;2023-07-28T12:46:45;97997.44;;;24.90;65.36
20710;BME280;10516;51.518;9.864;2023-07-28T12:49:11;98001.34;;;24.92;63.88
20710;BME280;10516;51.518;9.864;2023-07-28T12:51:37;97999.66;;;24.84;64.54
20710;BME280;10516;51.518;9.864;2023-07-28T12:54:03;98008.00;;;24.34;65.21
20710;BME280;10516;51.518;9.864;2023-07-28T12:56:28;98014.19;;;24.31;64.49
20710;BME280;10516;51.518;9.864;2023-07-28T12:58:54;97992.00;;;23.98;65.38
20710;BME280;10516;51.518;9.864;2023-07-28T13:01:19;98013.38;;;23.96;65.07
20710;BME280;10516;51.518;9.864;2023-07-28T13:03:44;98015.16;;;23.72;66.03